sensor_id;sensor_type;location;lat;lon;timestamp;P1;durP1;ratioP1;P2;durP2;ratioP2
32734;SDS011;19112;51.076;3.706;2022-09-24T00:01:15;38.45;;;18.98;;
32734;SDS011;19112;51.076;3.706;2022-09-24T00:03:47;39.58;;;19.75;;
32734;SDS011;19112;51.076;3.706;2022-09-24T00:06:19;40.10;;;20.45;;
32734;SDS011;19112;51.076;3.706;2022-09-24T00:08:47;40.53;;;19.92;;
32734;SDS011;19112;51.076;3.706;2022-09-24T00:11:16;36.17;;;19.40;;
32734;SDS011;19112;51.076;3.706;2022-09-24T00:13:44;37.67;;;19.38;;
32734;SDS011;19112;51.076;3.706;2022-09-24T00:16:12;38.45;;;18.65;;
32734;SDS011;19112;51.076;3.706;2022-09-24T00:18:39;39.33;;;20.08;;
32734;SDS011;19112;51.076;3.706;2022-09-24T00:23:57;34.90;;;19.48;;
32734;SDS011;19112;51.076;3.706;2022-09-24T00:26:25;32.53;;;17.73;;
32734;SDS011;19112;51.076;3.706;2022-09-24T00:29:10;34.78;;;17.58;;
32734;SDS011;19112;51.076;3.706;2022-09-24T00:31:41;37.05;;;19.65;;
32734;SDS011;19112;51.076;3.706;2022-09-24T00:34:07;38.05;;;18.50;;
32734;SDS011;19112;51.076;3.706;2022-09-24T00:36:33;34.17;;;17.15;;
32734;SDS011;19112;51.076;3.706;2022-09-24T00:38:59;31.50;;;17.20;;
32734;SDS011;19112;51.076;3.706;2022-09-24T00:41:26;33.75;;;17.50;;
32734;SDS011;19112;51.076;3.706;2022-09-24T00:43:55;32.25;;;15.70;;
32734;SDS011;19112;51.076;3.706;2022-09-24T00:46:24;31.00;;;16.20;;
32734;SDS011;19112;51.076;3.706;2022-09-24T00:49:09;40.28;;;15.65;;
32734;SDS011;19112;51.076;3.706;2022-09-24T00:51:39;29.88;;;15.32;;
32734;SDS011;19112;51.076;3.706;2022-09-24T00:54:08;32.67;;;15.23;;
32734;SDS011;19112;51.076;3.706;2022-09-24T00:56:40;30.70;;;15.48;;
32734;SDS011;19112;51.076;3.706;2022-09-24T00:59:09;37.70;;;15.43;;
32734;SDS011;19112;51.076;3.706;2022-09-24T01:01:41;29.77;;;14.35;;
32734;SDS011;19112;51.076;3.706;2022-09-24T01:04:09;28.17;;;13.07;;
32734;SDS011;19112;51.076;3.706;2022-09-24T01:06:35;27.40;;;12.10;;
32734;SDS011;19112;51.076;3.706;2022-09-24T01:09:02;24.63;;;12.23;;
32734;SDS011;19112;51.076;3.706;2022-09-24T01:15:13;24.27;;;10.63;;
32734;SDS011;19112;51.076;3.706;2022-09-24T01:23:18;20.98;;;8.48;;
32734;SDS011;19112;51.076;3.706;2022-09-24T01:26:17;20.38;;;8.95;;
32734;SDS011;19112;51.076;3.706;2022-09-24T01:29:18;24.77;;;9.25;;
32734;SDS011;19112;51.076;3.706;2022-09-24T01:36:03;22.00;;;8.95;;
32734;SDS011;19112;51.076;3.706;2022-09-24T01:38:16;19.33;;;8.15;;
32734;SDS011;19112;51.076;3.706;2022-09-24T01:40:47;20.10;;;9.23;;
32734;SDS011;19112;51.076;3.706;2022-09-24T01:43:15;23.58;;;9.27;;
32734;SDS011;19112;51.076;3.706;2022-09-24T01:45:44;20.20;;;8.80;;
32734;SDS011;19112;51.076;3.706;2022-09-24T01:48:10;20.63;;;8.65;;
32734;SDS011;19112;51.076;3.706;2022-09-24T01:50:39;23.35;;;9.77;;
32734;SDS011;19112;51.076;3.706;2022-09-24T01:53:30;27.90;;;9.52;;
32734;SDS011;19112;51.076;3.706;2022-09-24T01:56:04;29.35;;;8.95;;
32734;SDS011;19112;51.076;3.706;2022-09-24T02:01:21;20.58;;;8.45;;
32734;SDS011;19112;51.076;3.706;2022-09-24T02:03:55;21.13;;;8.35;;
32734;SDS011;19112;51.076;3.706;2022-09-24T02:06:25;20.27;;;7.90;;
32734;SDS011;19112;51.076;3.706;2022-09-24T02:09:02;18.80;;;8.23;;
32734;SDS011;19112;51.076;3.706;2022-09-24T02:11:28;18.77;;;8.13;;
32734;SDS011;19112;51.076;3.706;2022-09-24T02:14:04;19.85;;;8.43;;
32734;SDS011;19112;51.076;3.706;2022-09-24T02:16:41;22.40;;;8.73;;
32734;SDS011;19112;51.076;3.706;2022-09-24T02:19:13;19.45;;;7.47;;
32734;SDS011;19112;51.076;3.706;2022-09-24T02:21:42;21.45;;;8.43;;
32734;SDS011;19112;51.076;3.706;2022-09-24T02:24:15;25.02;;;9.13;;
32734;SDS011;19112;51.076;3.706;2022-09-24T02:26:42;21.42;;;8.73;;
32734;SDS011;19112;51.076;3.706;2022-09-24T02:29:09;23.38;;;9.55;;
32734;SDS011;19112;51.076;3.706;2022-09-24T02:31:37;20.73;;;8.27;;
32734;SDS011;19112;51.076;3.706;2022-09-24T02:34:07;24.20;;;9.60;;
32734;SDS011;19112;51.076;3.706;2022-09-24T02:36:45;20.05;;;8.52;;
32734;SDS011;19112;51.076;3.706;2022-09-24T02:39:23;21.65;;;8.90;;
32734;SDS011;19112;51.076;3.706;2022-09-24T02:41:49;23.08;;;9.02;;
32734;SDS011;19112;51.076;3.706;2022-09-24T02:44:17;22.52;;;9.65;;
32734;SDS011;19112;51.076;3.706;2022-09-24T02:46:44;19.77;;;9.07;;
32734;SDS011;19112;51.076;3.706;2022-09-24T02:49:11;26.35;;;9.25;;
32734;SDS011;19112;51.076;3.706;2022-09-24T02:51:38;26.90;;;8.85;;
32734;SDS011;19112;51.076;3.706;2022-09-24T02:54:05;21.45;;;9.48;;
32734;SDS011;19112;51.076;3.706;2022-09-24T02:56:31;22.67;;;9.65;;
32734;SDS011;19112;51.076;3.706;2022-09-24T02:58:58;19.58;;;8.80;;
32734;SDS011;19112;51.076;3.706;2022-09-24T03:01:25;23.58;;;8.95;;
32734;SDS011;19112;51.076;3.706;2022-09-24T03:03:51;23.23;;;8.65;;
32734;SDS011;19112;51.076;3.706;2022-09-24T03:06:17;25.65;;;9.18;;
32734;SDS011;19112;51.076;3.706;2022-09-24T03:08:43;21.10;;;8.77;;
32734;SDS011;19112;51.076;3.706;2022-09-24T03:11:09;21.20;;;9.05;;
32734;SDS011;19112;51.076;3.706;2022-09-24T03:13:36;20.27;;;8.50;;
32734;SDS011;19112;51.076;3.706;2022-09-24T03:16:03;19.48;;;8.38;;
32734;SDS011;19112;51.076;3.706;2022-09-24T03:18:30;21.30;;;8.52;;
32734;SDS011;19112;51.076;3.706;2022-09-24T03:20:57;21.52;;;8.00;;
32734;SDS011;19112;51.076;3.706;2022-09-24T03:23:29;22.92;;;8.82;;
32734;SDS011;19112;51.076;3.706;2022-09-24T03:25:55;43.42;;;9.50;;
32734;SDS011;19112;51.076;3.706;2022-09-24T03:28:20;19.35;;;8.57;;
32734;SDS011;19112;51.076;3.706;2022-09-24T03:30:46;19.88;;;8.30;;
32734;SDS011;19112;51.076;3.706;2022-09-24T03:33:46;24.48;;;8.13;;
32734;SDS011;19112;51.076;3.706;2022-09-24T03:36:23;20.60;;;8.30;;
32734;SDS011;19112;51.076;3.706;2022-09-24T03:38:51;19.65;;;8.02;;
32734;SDS011;19112;51.076;3.706;2022-09-24T03:41:20;21.83;;;8.82;;
32734;SDS011;19112;51.076;3.706;2022-09-24T03:43:48;24.05;;;8.38;;
32734;SDS011;19112;51.076;3.706;2022-09-24T03:46:14;19.98;;;9.27;;
32734;SDS011;19112;51.076;3.706;2022-09-24T03:48:41;19.08;;;8.23;;
32734;SDS011;19112;51.076;3.706;2022-09-24T03:51:08;20.70;;;8.57;;
32734;SDS011;19112;51.076;3.706;2022-09-24T03:53:39;23.15;;;8.05;;
32734;SDS011;19112;51.076;3.706;2022-09-24T03:56:07;22.92;;;8.23;;
32734;SDS011;19112;51.076;3.706;2022-09-24T03:58:34;22.35;;;8.73;;
32734;SDS011;19112;51.076;3.706;2022-09-24T04:01:02;21.30;;;8.38;;
32734;SDS011;19112;51.076;3.706;2022-09-24T04:03:28;23.60;;;8.73;;
32734;SDS011;19112;51.076;3.706;2022-09-24T04:05:54;21.10;;;8.52;;
32734;SDS011;19112;51.076;3.706;2022-09-24T04:08:20;21.13;;;8.45;;
32734;SDS011;19112;51.076;3.706;2022-09-24T04:10:47;23.15;;;9.00;;
32734;SDS011;19112;51.076;3.706;2022-09-24T04:13:15;22.25;;;8.82;;
32734;SDS011;19112;51.076;3.706;2022-09-24T04:15:42;24.63;;;10.00;;
32734;SDS011;19112;51.076;3.706;2022-09-24T04:18:08;24.92;;;9.32;;
32734;SDS011;19112;51.076;3.706;2022-09-24T04:20:34;18.17;;;7.72;;
32734;SDS011;19112;51.076;3.706;2022-09-24T04:23:01;20.23;;;8.00;;
32734;SDS011;19112;51.076;3.706;2022-09-24T04:25:27;26.45;;;9.00;;
32734;SDS011;19112;51.076;3.706;2022-09-24T04:28:00;26.25;;;9.05;;
32734;SDS011;19112;51.076;3.706;2022-09-24T04:30:30;21.15;;;8.02;;
32734;SDS011;19112;51.076;3.706;2022-09-24T04:32:58;18.55;;;7.47;;
32734;SDS011;19112;51.076;3.706;2022-09-24T04:35:25;23.77;;;8.50;;
32734;SDS011;19112;51.076;3.706;2022-09-24T04:37:53;20.45;;;7.20;;
32734;SDS011;19112;51.076;3.706;2022-09-24T04:40:20;19.10;;;7.60;;
32734;SDS011;19112;51.076;3.706;2022-09-24T04:42:46;19.70;;;7.45;;
32734;SDS011;19112;51.076;3.706;2022-09-24T04:45:13;16.60;;;7.47;;
32734;SDS011;19112;51.076;3.706;2022-09-24T04:47:44;21.30;;;7.90;;
32734;SDS011;19112;51.076;3.706;2022-09-24T04:50:22;19.15;;;8.07;;
32734;SDS011;19112;51.076;3.706;2022-09-24T04:52:53;20.50;;;8.35;;
32734;SDS011;19112;51.076;3.706;2022-09-24T04:55:19;19.80;;;8.05;;
32734;SDS011;19112;51.076;3.706;2022-09-24T04:57:47;22.75;;;7.90;;
32734;SDS011;19112;51.076;3.706;2022-09-24T05:00:14;21.20;;;8.45;;
32734;SDS011;19112;51.076;3.706;2022-09-24T05:02:44;21.67;;;8.10;;
32734;SDS011;19112;51.076;3.706;2022-09-24T05:05:10;20.80;;;7.70;;
32734;SDS011;19112;51.076;3.706;2022-09-24T05:07:37;19.63;;;7.55;;
32734;SDS011;19112;51.076;3.706;2022-09-24T05:10:03;21.55;;;8.60;;
32734;SDS011;19112;51.076;3.706;2022-09-24T05:12:30;22.40;;;8.57;;
32734;SDS011;19112;51.076;3.706;2022-09-24T05:14:58;21.77;;;8.05;;
32734;SDS011;19112;51.076;3.706;2022-09-24T05:17:24;31.08;;;9.05;;
32734;SDS011;19112;51.076;3.706;2022-09-24T05:19:49;20.95;;;8.23;;
32734;SDS011;19112;51.076;3.706;2022-09-24T05:22:15;22.83;;;8.63;;
32734;SDS011;19112;51.076;3.706;2022-09-24T05:24:41;23.70;;;8.43;;
32734;SDS011;19112;51.076;3.706;2022-09-24T05:27:07;18.27;;;7.40;;
32734;SDS011;19112;51.076;3.706;2022-09-24T05:29:37;19.38;;;7.75;;
32734;SDS011;19112;51.076;3.706;2022-09-24T05:32:15;17.15;;;7.28;;
32734;SDS011;19112;51.076;3.706;2022-09-24T05:34:43;24.17;;;8.25;;
32734;SDS011;19112;51.076;3.706;2022-09-24T05:37:10;19.85;;;7.57;;
32734;SDS011;19112;51.076;3.706;2022-09-24T05:39:37;19.52;;;8.00;;
32734;SDS011;19112;51.076;3.706;2022-09-24T05:42:03;19.35;;;7.55;;
32734;SDS011;19112;51.076;3.706;2022-09-24T05:44:29;20.20;;;7.63;;
32734;SDS011;19112;51.076;3.706;2022-09-24T05:46:56;20.95;;;7.70;;
32734;SDS011;19112;51.076;3.706;2022-09-24T05:49:22;19.95;;;7.85;;
32734;SDS011;19112;51.076;3.706;2022-09-24T05:51:48;21.00;;;8.45;;
32734;SDS011;19112;51.076;3.706;2022-09-24T05:54:18;20.77;;;8.50;;
32734;SDS011;19112;51.076;3.706;2022-09-24T05:56:44;20.58;;;8.88;;
32734;SDS011;19112;51.076;3.706;2022-09-24T05:59:10;20.27;;;9.50;;
32734;SDS011;19112;51.076;3.706;2022-09-24T06:01:37;21.85;;;9.30;;
32734;SDS011;19112;51.076;3.706;2022-09-24T06:04:02;23.45;;;8.95;;
32734;SDS011;19112;51.076;3.706;2022-09-24T06:06:28;22.23;;;9.30;;
32734;SDS011;19112;51.076;3.706;2022-09-24T06:08:54;22.20;;;9.50;;
32734;SDS011;19112;51.076;3.706;2022-09-24T06:11:20;24.13;;;9.38;;
32734;SDS011;19112;51.076;3.706;2022-09-24T06:13:50;21.92;;;9.80;;
32734;SDS011;19112;51.076;3.706;2022-09-24T06:16:16;22.55;;;9.70;;
32734;SDS011;19112;51.076;3.706;2022-09-24T06:18:42;20.90;;;9.27;;
32734;SDS011;19112;51.076;3.706;2022-09-24T06:21:11;22.08;;;9.98;;
32734;SDS011;19112;51.076;3.706;2022-09-24T06:23:41;23.75;;;10.27;;
32734;SDS011;19112;51.076;3.706;2022-09-24T06:26:10;24.08;;;9.35;;
32734;SDS011;19112;51.076;3.706;2022-09-24T06:28:38;25.95;;;10.43;;
32734;SDS011;19112;51.076;3.706;2022-09-24T06:31:05;23.70;;;9.90;;
32734;SDS011;19112;51.076;3.706;2022-09-24T06:33:32;22.40;;;10.18;;
32734;SDS011;19112;51.076;3.706;2022-09-24T06:35:58;27.52;;;11.20;;
32734;SDS011;19112;51.076;3.706;2022-09-24T06:38:26;23.02;;;10.38;;
32734;SDS011;19112;51.076;3.706;2022-09-24T06:40:56;25.55;;;10.88;;
32734;SDS011;19112;51.076;3.706;2022-09-24T06:43:27;23.27;;;10.27;;
32734;SDS011;19112;51.076;3.706;2022-09-24T06:45:57;24.38;;;12.27;;
32734;SDS011;19112;51.076;3.706;2022-09-24T06:48:24;26.33;;;11.73;;
32734;SDS011;19112;51.076;3.706;2022-09-24T06:50:51;26.70;;;10.90;;
32734;SDS011;19112;51.076;3.706;2022-09-24T06:53:18;23.67;;;11.27;;
32734;SDS011;19112;51.076;3.706;2022-09-24T06:55:44;29.92;;;11.75;;
32734;SDS011;19112;51.076;3.706;2022-09-24T06:58:11;25.75;;;11.18;;
32734;SDS011;19112;51.076;3.706;2022-09-24T07:00:40;26.25;;;12.23;;
32734;SDS011;19112;51.076;3.706;2022-09-24T07:03:08;28.23;;;12.20;;
32734;SDS011;19112;51.076;3.706;2022-09-24T07:05:39;24.60;;;11.38;;
32734;SDS011;19112;51.076;3.706;2022-09-24T07:08:05;26.60;;;11.75;;
32734;SDS011;19112;51.076;3.706;2022-09-24T07:10:30;25.50;;;12.32;;
32734;SDS011;19112;51.076;3.706;2022-09-24T07:12:56;23.80;;;11.27;;
32734;SDS011;19112;51.076;3.706;2022-09-24T07:15:22;25.50;;;11.45;;
32734;SDS011;19112;51.076;3.706;2022-09-24T07:17:48;29.27;;;12.40;;
32734;SDS011;19112;51.076;3.706;2022-09-24T07:22:47;30.48;;;12.45;;
32734;SDS011;19112;51.076;3.706;2022-09-24T07:25:12;26.52;;;12.10;;
32734;SDS011;19112;51.076;3.706;2022-09-24T07:27:38;25.88;;;12.68;;
32734;SDS011;19112;51.076;3.706;2022-09-24T07:30:05;30.30;;;13.77;;
32734;SDS011;19112;51.076;3.706;2022-09-24T07:32:32;25.63;;;12.95;;
32734;SDS011;19112;51.076;3.706;2022-09-24T07:34:59;27.50;;;13.13;;
32734;SDS011;19112;51.076;3.706;2022-09-24T07:37:24;26.88;;;13.60;;
32734;SDS011;19112;51.076;3.706;2022-09-24T07:39:50;27.35;;;14.00;;
32734;SDS011;19112;51.076;3.706;2022-09-24T07:42:16;29.20;;;14.23;;
32734;SDS011;19112;51.076;3.706;2022-09-24T07:44:42;30.95;;;15.18;;
32734;SDS011;19112;51.076;3.706;2022-09-24T07:47:08;30.05;;;14.40;;
32734;SDS011;19112;51.076;3.706;2022-09-24T07:49:34;29.58;;;14.18;;
32734;SDS011;19112;51.076;3.706;2022-09-24T07:52:00;29.52;;;14.65;;
32734;SDS011;19112;51.076;3.706;2022-09-24T07:54:26;29.10;;;15.50;;
32734;SDS011;19112;51.076;3.706;2022-09-24T07:56:53;31.15;;;15.13;;
32734;SDS011;19112;51.076;3.706;2022-09-24T07:59:20;29.77;;;15.77;;
32734;SDS011;19112;51.076;3.706;2022-09-24T08:01:45;27.65;;;14.65;;
32734;SDS011;19112;51.076;3.706;2022-09-24T08:04:11;30.45;;;16.00;;
32734;SDS011;19112;51.076;3.706;2022-09-24T08:06:37;29.27;;;16.52;;
32734;SDS011;19112;51.076;3.706;2022-09-24T08:09:03;30.23;;;16.00;;
32734;SDS011;19112;51.076;3.706;2022-09-24T08:11:29;35.10;;;16.95;;
32734;SDS011;19112;51.076;3.706;2022-09-24T08:13:55;31.17;;;16.48;;
32734;SDS011;19112;51.076;3.706;2022-09-24T08:16:21;34.20;;;18.42;;
32734;SDS011;19112;51.076;3.706;2022-09-24T08:18:53;32.50;;;17.85;;
32734;SDS011;19112;51.076;3.706;2022-09-24T08:21:21;32.92;;;18.15;;
32734;SDS011;19112;51.076;3.706;2022-09-24T08:23:49;34.25;;;18.38;;
32734;SDS011;19112;51.076;3.706;2022-09-24T08:26:15;31.98;;;17.83;;
32734;SDS011;19112;51.076;3.706;2022-09-24T08:28:42;34.03;;;19.27;;
32734;SDS011;19112;51.076;3.706;2022-09-24T08:31:09;32.28;;;18.63;;
32734;SDS011;19112;51.076;3.706;2022-09-24T08:33:37;32.72;;;18.38;;
32734;SDS011;19112;51.076;3.706;2022-09-24T08:36:05;31.80;;;18.10;;
32734;SDS011;19112;51.076;3.706;2022-09-24T08:38:33;29.52;;;17.70;;
32734;SDS011;19112;51.076;3.706;2022-09-24T08:41:16;31.35;;;17.70;;
32734;SDS011;19112;51.076;3.706;2022-09-24T08:44:04;30.25;;;17.65;;
32734;SDS011;19112;51.076;3.706;2022-09-24T08:47:09;32.38;;;17.85;;
32734;SDS011;19112;51.076;3.706;2022-09-24T08:50:00;29.83;;;17.05;;
32734;SDS011;19112;51.076;3.706;2022-09-24T08:52:38;32.35;;;17.95;;
32734;SDS011;19112;51.076;3.706;2022-09-24T08:55:38;33.17;;;18.65;;
32734;SDS011;19112;51.076;3.706;2022-09-24T09:03:41;33.63;;;18.98;;
32734;SDS011;19112;51.076;3.706;2022-09-24T09:09:40;35.00;;;19.45;;
32734;SDS011;19112;51.076;3.706;2022-09-24T09:15:13;32.92;;;18.20;;
32734;SDS011;19112;51.076;3.706;2022-09-24T09:17:46;36.03;;;20.25;;
32734;SDS011;19112;51.076;3.706;2022-09-24T09:23:18;33.17;;;19.83;;
32734;SDS011;19112;51.076;3.706;2022-09-24T09:26:08;33.60;;;19.20;;
32734;SDS011;19112;51.076;3.706;2022-09-24T09:28:36;34.75;;;19.17;;
32734;SDS011;19112;51.076;3.706;2022-09-24T09:44:50;25.73;;;13.77;;
32734;SDS011;19112;51.076;3.706;2022-09-24T09:53:00;24.75;;;11.90;;
32734;SDS011;19112;51.076;3.706;2022-09-24T09:55:30;23.33;;;11.18;;
32734;SDS011;19112;51.076;3.706;2022-09-24T09:58:17;23.50;;;10.27;;
32734;SDS011;19112;51.076;3.706;2022-09-24T10:01:03;20.67;;;8.63;;
32734;SDS011;19112;51.076;3.706;2022-09-24T10:06:29;20.30;;;8.15;;
32734;SDS011;19112;51.076;3.706;2022-09-24T10:09:10;18.27;;;8.10;;
32734;SDS011;19112;51.076;3.706;2022-09-24T10:11:44;20.13;;;8.73;;
32734;SDS011;19112;51.076;3.706;2022-09-24T10:14:11;17.27;;;8.38;;
32734;SDS011;19112;51.076;3.706;2022-09-24T10:16:42;18.23;;;8.07;;
32734;SDS011;19112;51.076;3.706;2022-09-24T10:19:13;21.27;;;8.35;;
32734;SDS011;19112;51.076;3.706;2022-09-24T10:21:52;15.82;;;7.10;;
32734;SDS011;19112;51.076;3.706;2022-09-24T10:24:22;21.17;;;7.63;;
32734;SDS011;19112;51.076;3.706;2022-09-24T10:26:50;18.70;;;7.00;;
32734;SDS011;19112;51.076;3.706;2022-09-24T10:29:18;22.42;;;7.65;;
32734;SDS011;19112;51.076;3.706;2022-09-24T10:32:16;17.75;;;7.97;;
32734;SDS011;19112;51.076;3.706;2022-09-24T10:34:56;16.00;;;7.10;;
32734;SDS011;19112;51.076;3.706;2022-09-24T10:37:27;18.88;;;6.90;;
32734;SDS011;19112;51.076;3.706;2022-09-24T10:40:00;23.98;;;6.35;;
32734;SDS011;19112;51.076;3.706;2022-09-24T10:42:38;19.48;;;6.68;;
32734;SDS011;19112;51.076;3.706;2022-09-24T10:45:05;15.25;;;6.03;;
32734;SDS011;19112;51.076;3.706;2022-09-24T11:05:25;13.30;;;3.53;;
32734;SDS011;19112;51.076;3.706;2022-09-24T11:08:03;14.23;;;3.88;;
32734;SDS011;19112;51.076;3.706;2022-09-24T11:10:46;12.63;;;3.83;;
32734;SDS011;19112;51.076;3.706;2022-09-24T11:13:48;12.13;;;3.50;;
32734;SDS011;19112;51.076;3.706;2022-09-24T11:19:13;13.63;;;3.95;;
32734;SDS011;19112;51.076;3.706;2022-09-24T11:25:22;17.13;;;4.15;;
32734;SDS011;19112;51.076;3.706;2022-09-24T11:27:50;18.80;;;3.90;;
32734;SDS011;19112;51.076;3.706;2022-09-24T11:33:51;16.15;;;3.53;;
32734;SDS011;19112;51.076;3.706;2022-09-24T11:41:54;19.20;;;4.50;;
32734;SDS011;19112;51.076;3.706;2022-09-24T11:44:53;13.48;;;3.92;;
32734;SDS011;19112;51.076;3.706;2022-09-24T11:48:02;14.73;;;3.03;;
32734;SDS011;19112;51.076;3.706;2022-09-24T11:53:42;14.27;;;3.90;;
32734;SDS011;19112;51.076;3.706;2022-09-24T11:56:14;15.00;;;3.60;;
32734;SDS011;19112;51.076;3.706;2022-09-24T11:59:12;14.30;;;3.70;;
32734;SDS011;19112;51.076;3.706;2022-09-24T12:01:45;15.35;;;3.83;;
32734;SDS011;19112;51.076;3.706;2022-09-24T12:04:19;18.15;;;4.03;;
32734;SDS011;19112;51.076;3.706;2022-09-24T12:07:10;16.33;;;4.13;;
32734;SDS011;19112;51.076;3.706;2022-09-24T12:09:54;11.52;;;3.90;;
32734;SDS011;19112;51.076;3.706;2022-09-24T12:13:05;14.45;;;3.67;;
32734;SDS011;19112;51.076;3.706;2022-09-24T12:15:55;14.68;;;4.15;;
32734;SDS011;19112;51.076;3.706;2022-09-24T12:18:41;19.42;;;3.60;;
32734;SDS011;19112;51.076;3.706;2022-09-24T12:21:33;11.93;;;3.72;;
32734;SDS011;19112;51.076;3.706;2022-09-24T12:24:50;15.75;;;3.92;;
32734;SDS011;19112;51.076;3.706;2022-09-24T12:27:00;19.77;;;4.70;;
32734;SDS011;19112;51.076;3.706;2022-09-24T12:38:28;23.48;;;4.03;;
32734;SDS011;19112;51.076;3.706;2022-09-24T12:51:53;11.77;;;3.30;;
32734;SDS011;19112;51.076;3.706;2022-09-24T12:57:03;15.10;;;3.20;;
32734;SDS011;19112;51.076;3.706;2022-09-24T13:00:31;18.08;;;3.97;;
32734;SDS011;19112;51.076;3.706;2022-09-24T13:02:58;11.35;;;3.13;;
32734;SDS011;19112;51.076;3.706;2022-09-24T13:05:31;13.55;;;3.90;;
32734;SDS011;19112;51.076;3.706;2022-09-24T13:10:34;13.40;;;3.13;;
32734;SDS011;19112;51.076;3.706;2022-09-24T13:13:01;14.45;;;3.33;;
32734;SDS011;19112;51.076;3.706;2022-09-24T13:15:46;19.77;;;3.65;;
32734;SDS011;19112;51.076;3.706;2022-09-24T13:18:30;12.45;;;2.90;;
32734;SDS011;19112;51.076;3.706;2022-09-24T13:21:01;14.20;;;2.58;;
32734;SDS011;19112;51.076;3.706;2022-09-24T13:26:06;20.08;;;2.90;;
32734;SDS011;19112;51.076;3.706;2022-09-24T13:28:58;16.05;;;2.95;;
32734;SDS011;19112;51.076;3.706;2022-09-24T13:34:29;15.63;;;3.08;;
32734;SDS011;19112;51.076;3.706;2022-09-24T13:37:01;15.55;;;3.85;;
32734;SDS011;19112;51.076;3.706;2022-09-24T13:40:05;8.93;;;2.72;;
32734;SDS011;19112;51.076;3.706;2022-09-24T13:42:45;12.38;;;2.70;;
32734;SDS011;19112;51.076;3.706;2022-09-24T13:45:19;17.33;;;2.78;;
32734;SDS011;19112;51.076;3.706;2022-09-24T13:47:52;10.73;;;2.92;;
32734;SDS011;19112;51.076;3.706;2022-09-24T13:50:30;13.30;;;3.17;;
32734;SDS011;19112;51.076;3.706;2022-09-24T13:53:17;11.15;;;2.53;;
32734;SDS011;19112;51.076;3.706;2022-09-24T13:55:53;12.45;;;2.95;;
32734;SDS011;19112;51.076;3.706;2022-09-24T13:58:26;13.55;;;2.90;;
32734;SDS011;19112;51.076;3.706;2022-09-24T14:00:54;19.20;;;4.68;;
32734;SDS011;19112;51.076;3.706;2022-09-24T14:03:33;14.63;;;3.10;;
32734;SDS011;19112;51.076;3.706;2022-09-24T14:06:01;11.27;;;2.50;;
32734;SDS011;19112;51.076;3.706;2022-09-24T14:08:39;9.05;;;2.55;;
32734;SDS011;19112;51.076;3.706;2022-09-24T14:11:19;12.00;;;2.80;;
32734;SDS011;19112;51.076;3.706;2022-09-24T14:13:50;13.15;;;2.75;;
32734;SDS011;19112;51.076;3.706;2022-09-24T14:16:24;18.80;;;2.92;;
32734;SDS011;19112;51.076;3.706;2022-09-24T14:19:00;10.13;;;2.60;;
32734;SDS011;19112;51.076;3.706;2022-09-24T14:21:35;11.75;;;2.38;;
32734;SDS011;19112;51.076;3.706;2022-09-24T14:27:07;8.13;;;2.63;;
32734;SDS011;19112;51.076;3.706;2022-09-24T14:29:52;14.32;;;3.05;;
32734;SDS011;19112;51.076;3.706;2022-09-24T14:32:34;16.55;;;2.30;;
32734;SDS011;19112;51.076;3.706;2022-09-24T14:35:37;11.10;;;2.55;;
32734;SDS011;19112;51.076;3.706;2022-09-24T14:38:41;13.13;;;2.58;;
32734;SDS011;19112;51.076;3.706;2022-09-24T14:41:16;11.77;;;2.40;;
32734;SDS011;19112;51.076;3.706;2022-09-24T14:43:54;8.32;;;2.17;;
32734;SDS011;19112;51.076;3.706;2022-09-24T14:46:32;10.23;;;3.03;;
32734;SDS011;19112;51.076;3.706;2022-09-24T14:49:26;12.68;;;2.22;;
32734;SDS011;19112;51.076;3.706;2022-09-24T14:52:23;8.98;;;2.55;;
32734;SDS011;19112;51.076;3.706;2022-09-24T14:54:59;10.90;;;2.45;;
32734;SDS011;19112;51.076;3.706;2022-09-24T14:57:40;9.68;;;2.17;;
32734;SDS011;19112;51.076;3.706;2022-09-24T15:00:26;9.88;;;2.33;;
32734;SDS011;19112;51.076;3.706;2022-09-24T15:03:13;14.57;;;3.92;;
32734;SDS011;19112;51.076;3.706;2022-09-24T15:05:44;15.15;;;2.67;;
32734;SDS011;19112;51.076;3.706;2022-09-24T15:10:37;11.32;;;2.70;;
32734;SDS011;19112;51.076;3.706;2022-09-24T15:13:13;13.60;;;2.47;;
32734;SDS011;19112;51.076;3.706;2022-09-24T15:15:43;11.57;;;2.47;;
32734;SDS011;19112;51.076;3.706;2022-09-24T15:18:10;10.57;;;3.28;;
32734;SDS011;19112;51.076;3.706;2022-09-24T15:20:36;10.80;;;2.58;;
32734;SDS011;19112;51.076;3.706;2022-09-24T15:23:02;10.88;;;2.88;;
32734;SDS011;19112;51.076;3.706;2022-09-24T15:25:28;10.02;;;2.90;;
32734;SDS011;19112;51.076;3.706;2022-09-24T15:27:54;15.15;;;3.33;;
32734;SDS011;19112;51.076;3.706;2022-09-24T15:30:20;13.65;;;2.83;;
32734;SDS011;19112;51.076;3.706;2022-09-24T15:32:46;10.82;;;2.88;;
32734;SDS011;19112;51.076;3.706;2022-09-24T15:35:14;10.02;;;2.55;;
32734;SDS011;19112;51.076;3.706;2022-09-24T15:37:41;15.05;;;3.45;;
32734;SDS011;19112;51.076;3.706;2022-09-24T15:40:28;12.48;;;2.67;;
32734;SDS011;19112;51.076;3.706;2022-09-24T15:42:57;12.00;;;2.95;;
32734;SDS011;19112;51.076;3.706;2022-09-24T15:45:24;12.02;;;2.75;;
32734;SDS011;19112;51.076;3.706;2022-09-24T15:47:51;12.23;;;3.15;;
32734;SDS011;19112;51.076;3.706;2022-09-24T15:50:20;12.65;;;3.05;;
32734;SDS011;19112;51.076;3.706;2022-09-24T15:52:52;12.50;;;3.03;;
32734;SDS011;19112;51.076;3.706;2022-09-24T15:55:22;9.45;;;2.63;;
32734;SDS011;19112;51.076;3.706;2022-09-24T15:57:48;13.45;;;3.08;;
32734;SDS011;19112;51.076;3.706;2022-09-24T16:00:17;12.98;;;4.45;;
32734;SDS011;19112;51.076;3.706;2022-09-24T16:05:18;14.57;;;3.10;;
32734;SDS011;19112;51.076;3.706;2022-09-24T16:07:45;12.82;;;3.00;;
32734;SDS011;19112;51.076;3.706;2022-09-24T16:10:11;11.43;;;2.92;;
32734;SDS011;19112;51.076;3.706;2022-09-24T16:12:38;12.43;;;2.70;;
32734;SDS011;19112;51.076;3.706;2022-09-24T16:15:05;17.45;;;3.35;;
32734;SDS011;19112;51.076;3.706;2022-09-24T16:17:32;14.93;;;3.20;;
32734;SDS011;19112;51.076;3.706;2022-09-24T16:19:58;15.50;;;3.22;;
32734;SDS011;19112;51.076;3.706;2022-09-24T16:22:24;17.27;;;3.10;;
32734;SDS011;19112;51.076;3.706;2022-09-24T16:24:49;15.20;;;2.95;;
32734;SDS011;19112;51.076;3.706;2022-09-24T16:27:15;18.42;;;3.67;;
32734;SDS011;19112;51.076;3.706;2022-09-24T16:29:41;19.77;;;3.70;;
32734;SDS011;19112;51.076;3.706;2022-09-24T16:32:07;12.00;;;3.30;;
32734;SDS011;19112;51.076;3.706;2022-09-24T16:34:33;16.95;;;3.83;;
32734;SDS011;19112;51.076;3.706;2022-09-24T16:36:58;15.20;;;3.83;;
32734;SDS011;19112;51.076;3.706;2022-09-24T16:39:24;21.98;;;5.25;;
32734;SDS011;19112;51.076;3.706;2022-09-24T16:41:50;21.65;;;4.38;;
32734;SDS011;19112;51.076;3.706;2022-09-24T16:44:17;22.13;;;4.38;;
32734;SDS011;19112;51.076;3.706;2022-09-24T16:46:43;14.77;;;3.95;;
32734;SDS011;19112;51.076;3.706;2022-09-24T16:49:10;15.82;;;3.88;;
32734;SDS011;19112;51.076;3.706;2022-09-24T16:51:36;21.75;;;4.68;;
32734;SDS011;19112;51.076;3.706;2022-09-24T16:54:03;18.85;;;4.43;;
32734;SDS011;19112;51.076;3.706;2022-09-24T16:56:30;23.17;;;5.50;;
32734;SDS011;19112;51.076;3.706;2022-09-24T16:58:56;15.88;;;4.32;;
32734;SDS011;19112;51.076;3.706;2022-09-24T17:01:22;15.90;;;4.25;;
32734;SDS011;19112;51.076;3.706;2022-09-24T17:03:52;13.75;;;3.60;;
32734;SDS011;19112;51.076;3.706;2022-09-24T17:06:29;16.65;;;4.85;;
32734;SDS011;19112;51.076;3.706;2022-09-24T17:08:55;20.35;;;4.28;;
32734;SDS011;19112;51.076;3.706;2022-09-24T17:11:40;18.77;;;4.07;;